Time;durP1;ratioP1;P1;durP2;ratioP2;P2;SDS_P1;SDS_P2;PMS_P1;PMS_P2;Temp;Humidity;BMP_temperature;BMP_pressure;BME280_temperature;BME280_humidity;BME280_pressure;Samples;Min_cycle;Max_cycle;Signal;HPM_P1;HPM_P2
2021/12/06 00:01:15;;;;;;;1999.90;999.90;;;5.70;99.90;;;;;;5033003;28;20427;-69
2021/12/06 00:03:44;;;;;;;1999.90;999.90;;;5.70;99.90;;;;;;5033037;28;20395;-69
2021/12/06 00:06:12;;;;;;;1999.90;999.90;;;5.70;99.90;;;;;;5032628;28;20412;-69
2021/12/06 00:08:37;;;;;;;1999.90;999.90;;;5.60;99.90;;;;;;5032950;28;20489;-69
2021/12/06 00:11:08;;;;;;;1999.90;999.90;;;5.60;99.90;;;;;;5032856;28;20423;-69
2021/12/06 00:13:39;;;;;;;1999.90;999.90;;;5.60;99.90;;;;;;5032819;28;20196;-69
2021/12/06 00:16:09;;;;;;;1999.90;999.90;;;5.60;99.90;;;;;;5032502;28;20395;-69
2021/12/06 00:18:36;;;;;;;1999.90;999.90;;;5.60;99.90;;;;;;5032680;28;20399;-69
2021/12/06 00:21:03;;;;;;;1999.90;999.90;;;5.70;99.90;;;;;;5032577;28;20899;-68
2021/12/06 00:23:29;;;;;;;1999.90;999.90;;;5.70;99.90;;;;;;5032639;28;20442;-68
2021/12/06 00:25:56;;;;;;;1999.90;999.90;;;5.70;99.90;;;;;;5032361;28;20916;-68
2021/12/06 00:28:22;;;;;;;1999.90;999.90;;;5.80;99.90;;;;;;5032577;28;20169;-68
2021/12/06 00:30:49;;;;;;;1999.90;999.90;;;5.80;99.90;;;;;;5013892;28;21187;-69
2021/12/06 00:33:14;;;;;;;1999.90;999.90;;;5.70;99.90;;;;;;5032453;28;20854;-68
2021/12/06 00:35:40;;;;;;;1999.90;999.90;;;5.70;99.90;;;;;;5032141;28;20434;-69
2021/12/06 00:38:06;;;;;;;1999.90;999.90;;;5.70;99.90;;;;;;5032439;28;20169;-69
2021/12/06 00:40:35;;;;;;;1999.90;999.90;;;5.70;99.90;;;;;;5032309;28;20946;-68
2021/12/06 00:43:01;;;;;;;1999.90;999.90;;;5.70;99.90;;;;;;5032283;28;20164;-68
2021/12/06 00:45:27;;;;;;;1999.90;999.90;;;5.70;99.90;;;;;;5031932;28;20414;-68
2021/12/06 00:47:54;;;;;;;1999.90;999.90;;;5.70;99.90;;;;;;5032251;28;20407;-69
2021/12/06 00:50:21;;;;;;;1999.90;999.90;;;5.70;99.90;;;;;;5032059;28;20427;-69
2021/12/06 00:52:47;;;;;;;1999.90;999.90;;;5.70;99.90;;;;;;5032078;28;20450;-68
2021/12/06 00:55:13;;;;;;;1999.90;999.90;;;5.70;99.90;;;;;;5031844;28;20431;-68
2021/12/06 00:57:40;;;;;;;1999.90;999.90;;;5.70;99.90;;;;;;5032133;28;20400;-69
2021/12/06 01:00:14;;;;;;;1999.90;999.90;;;5.60;99.90;;;;;;5031962;28;20481;-69
2021/12/06 01:02:40;;;;;;;1999.90;999.90;;;5.50;99.90;;;;;;5032098;28;20398;-68
2021/12/06 01:05:06;;;;;;;1999.90;999.90;;;5.50;99.90;;;;;;5031744;28;20412;-68
2021/12/06 01:07:31;;;;;;;1999.90;999.90;;;5.50;99.90;;;;;;5031971;28;20172;-68
2021/12/06 01:09:57;;;;;;;1999.90;999.90;;;5.50;99.90;;;;;;5031951;28;20422;-69
2021/12/06 01:12:23;;;;;;;1999.90;999.90;;;5.50;99.90;;;;;;5031811;28;20203;-69
2021/12/06 01:14:48;;;;;;;1999.90;999.90;;;5.40;99.90;;;;;;5031560;28;20168;-69
2021/12/06 01:17:14;;;;;;;1999.90;999.90;;;5.50;99.90;;;;;;5032004;28;20164;-69
2021/12/06 01:19:40;;;;;;;1999.90;999.90;;;5.50;99.90;;;;;;5031881;28;20165;-69
2021/12/06 01:24:41;;;;;;;1999.90;999.90;;;5.40;99.90;;;;;;5031526;28;20816;-69
2021/12/06 01:32:18;;;;;;;1999.90;999.90;;;5.50;99.90;;;;;;5031868;28;20959;-68
2021/12/06 01:40:12;;;;;;;1999.90;999.90;;;5.40;99.90;;;;;;5031609;28;20406;-69
2021/12/06 01:42:38;;;;;;;1999.90;999.90;;;5.40;99.90;;;;;;5035574;28;20892;-68
2021/12/06 01:45:07;;;;;;;1999.90;999.90;;;5.40;99.90;;;;;;5035250;28;20207;-68
2021/12/06 01:47:35;;;;;;;1999.90;999.90;;;5.40;99.90;;;;;;5035486;28;20502;-69
2021/12/06 01:50:07;;;;;;;1999.90;999.90;;;5.40;99.90;;;;;;5035467;28;20907;-69
2021/12/06 01:52:37;;;;;;;1999.90;999.90;;;5.40;99.90;;;;;;5035609;28;20850;-69
2021/12/06 01:55:06;;;;;;;1999.90;999.90;;;5.40;99.90;;;;;;5035150;28;20407;-69
2021/12/06 01:57:33;;;;;;;1999.90;999.90;;;5.30;99.90;;;;;;5035407;28;20395;-69
2021/12/06 02:00:00;;;;;;;1999.90;999.90;;;5.20;99.90;;;;;;5035347;28;20417;-68
2021/12/06 02:02:27;;;;;;;1999.90;999.90;;;5.20;99.90;;;;;;5035294;28;20896;-68
2021/12/06 02:04:53;;;;;;;1999.90;999.90;;;5.20;99.90;;;;;;5034823;28;20410;-68
2021/12/06 02:07:22;;;;;;;1999.90;999.90;;;5.20;99.90;;;;;;5035211;28;20410;-69
2021/12/06 02:09:49;;;;;;;1999.90;999.90;;;5.20;99.90;;;;;;5035301;28;20183;-68
2021/12/06 02:12:16;;;;;;;1999.90;999.90;;;5.10;99.90;;;;;;5034990;28;20457;-68
2021/12/06 02:15:06;;;;;;;1999.90;999.90;;;5.10;99.90;;;;;;5034844;28;20199;-69
2021/12/06 02:17:37;;;;;;;1999.90;999.90;;;5.10;99.90;;;;;;5034744;28;20634;-68
2021/12/06 02:20:13;;;;;;;1999.90;999.90;;;5.10;99.90;;;;;;5035011;28;20260;-69
2021/12/06 02:22:39;;;;;;;1999.90;999.90;;;5.00;99.90;;;;;;5034870;28;20415;-68
2021/12/06 02:25:13;;;;;;;1999.90;999.90;;;5.00;99.90;;;;;;5034630;28;20172;-68
2021/12/06 02:27:39;;;;;;;1999.90;999.90;;;4.90;99.90;;;;;;5034839;28;20248;-69
2021/12/06 02:30:07;;;;;;;1999.90;999.90;;;4.80;99.90;;;;;;5034766;28;20407;-69
2021/12/06 02:32:35;;;;;;;1999.90;999.90;;;4.80;99.90;;;;;;5034780;28;20454;-69
2021/12/06 02:35:01;;;;;;;1999.90;999.90;;;4.80;99.90;;;;;;5034405;28;20402;-69
2021/12/06 02:37:30;;;;;;;1999.90;999.90;;;4.80;99.90;;;;;;5034675;28;20426;-68
2021/12/06 02:39:57;;;;;;;1999.90;999.90;;;4.80;99.90;;;;;;5034549;28;20403;-68
2021/12/06 02:42:25;;;;;;;1999.90;999.90;;;4.70;99.90;;;;;;5034413;28;20258;-69
2021/12/06 02:44:51;;;;;;;1999.90;999.90;;;4.60;99.90;;;;;;5034225;28;20179;-69
2021/12/06 02:47:18;;;;;;;1999.90;999.90;;;4.60;99.90;;;;;;5034467;28;20191;-68
2021/12/06 02:49:45;;;;;;;1999.90;999.90;;;4.60;99.90;;;;;;5034411;28;20236;-69
2021/12/06 02:52:12;;;;;;;1999.90;999.90;;;4.60;99.90;;;;;;5033293;28;20458;-69
2021/12/06 02:54:39;;;;;;;1999.90;999.90;;;4.40;99.90;;;;;;5033997;28;20625;-68
2021/12/06 02:59:39;;;;;;;1999.90;999.90;;;4.30;99.90;;;;;;5034253;28;20772;-69
2021/12/06 03:02:07;;;;;;;1999.90;999.90;;;4.40;99.90;;;;;;5034229;28;20188;-69
2021/12/06 03:04:33;;;;;;;1999.90;999.90;;;4.30;99.90;;;;;;5033945;28;20178;-68
2021/12/06 03:07:00;;;;;;;1999.90;999.90;;;4.30;99.90;;;;;;5034097;28;20225;-69
2021/12/06 03:09:29;;;;;;;1999.90;999.90;;;4.30;99.90;;;;;;5034028;28;20172;-69
2021/12/06 03:11:59;;;;;;;1999.90;999.90;;;4.30;99.90;;;;;;5034001;28;20203;-68
2021/12/06 03:14:29;;;;;;;1999.90;999.90;;;4.30;99.90;;;;;;5033693;28;20161;-68
2021/12/06 03:16:57;;;;;;;1999.90;999.90;;;4.40;99.90;;;;;;5033980;28;20540;-68
2021/12/06 03:19:23;;;;;;;1999.90;999.90;;;4.40;99.90;;;;;;5033884;28;20179;-68
2021/12/06 03:21:48;;;;;;;1999.90;999.90;;;4.50;99.90;;;;;;5033726;28;20218;-68
2021/12/06 03:24:14;;;;;;;1999.90;999.90;;;4.60;99.90;;;;;;5033450;28;20228;-68
2021/12/06 03:26:41;;;;;;;1999.90;999.90;;;4.60;99.90;;;;;;5033699;28;20958;-69
2021/12/06 03:29:07;;;;;;;1999.90;999.90;;;4.70;99.90;;;;;;5033723;28;20223;-68
2021/12/06 03:31:33;;;;;;;1999.90;999.90;;;4.70;99.90;;;;;;5033584;28;20518;-68
2021/12/06 03:34:00;;;;;;;1999.90;999.90;;;4.80;99.90;;;;;;5033336;28;20192;-67
2021/12/06 03:36:29;;;;;;;1999.90;999.90;;;4.90;99.90;;;;;;5033356;28;20259;-69
2021/12/06 03:38:56;;;;;;;1999.90;999.90;;;4.90;99.90;;;;;;5033376;28;20450;-68
2021/12/06 03:41:24;;;;;;;1999.90;999.90;;;4.90;99.90;;;;;;5033411;28;20215;-68
2021/12/06 03:43:51;;;;;;;1999.90;999.90;;;5.00;99.90;;;;;;5033368;28;20167;-69
2021/12/06 03:46:19;;;;;;;1999.90;999.90;;;4.90;99.90;;;;;;5033121;28;20414;-68
2021/12/06 03:48:45;;;;;;;1999.90;999.90;;;4.90;99.90;;;;;;5033365;28;20168;-69
2021/12/06 03:51:11;;;;;;;1999.90;999.90;;;4.90;99.90;;;;;;5033431;28;20455;-68
2021/12/06 03:53:37;;;;;;;1999.90;999.90;;;4.90;99.90;;;;;;5033182;28;20204;-68
2021/12/06 03:56:03;;;;;;;1999.90;999.90;;;4.90;99.90;;;;;;5032872;28;20737;-69
2021/12/06 03:58:29;;;;;;;1999.90;999.90;;;4.80;99.90;;;;;;5033143;28;20402;-69
2021/12/06 04:00:55;;;;;;;1999.90;999.90;;;4.80;99.90;;;;;;5033001;28;20188;-69
2021/12/06 04:03:25;;;;;;;1999.90;999.90;;;4.80;99.90;;;;;;5032864;28;20179;-68
2021/12/06 04:05:51;;;;;;;1999.90;999.90;;;4.80;99.90;;;;;;5032780;28;20179;-68
2021/12/06 04:08:16;;;;;;;1999.90;999.90;;;4.80;99.90;;;;;;5033095;28;20191;-68
2021/12/06 04:10:42;;;;;;;1999.90;999.90;;;4.70;99.90;;;;;;5032816;28;20419;-69
2021/12/06 04:13:09;;;;;;;1999.90;999.90;;;4.60;99.90;;;;;;5032743;28;20202;-69
2021/12/06 04:15:37;;;;;;;1999.90;999.90;;;4.50;99.90;;;;;;5032587;28;20226;-68
2021/12/06 04:18:03;;;;;;;1999.90;999.90;;;4.50;99.90;;;;;;5032682;28;20608;-68
2021/12/06 04:20:30;;;;;;;1999.90;999.90;;;4.40;99.90;;;;;;5032763;28;20224;-68
2021/12/06 04:22:56;;;;;;;1999.90;999.90;;;4.40;99.90;;;;;;5032802;28;20498;-68
2021/12/06 04:25:22;;;;;;;1999.90;999.90;;;4.40;99.90;;;;;;5032366;28;20214;-68
2021/12/06 04:27:54;;;;;;;1999.90;999.90;;;4.50;99.90;;;;;;5032567;28;20403;-68
2021/12/06 04:30:22;;;;;;;1999.90;999.90;;;4.40;99.90;;;;;;5032518;28;20410;-69
2021/12/06 04:32:48;;;;;;;1999.90;999.90;;;4.30;99.90;;;;;;5032349;28;20193;-68
2021/12/06 04:35:14;;;;;;;1999.90;999.90;;;4.30;99.90;;;;;;5032239;28;20193;-68
2021/12/06 04:37:40;;;;;;;1999.90;999.90;;;4.20;99.90;;;;;;5032484;28;20164;-69
2021/12/06 04:40:07;;;;;;;1999.90;999.90;;;4.00;99.90;;;;;;5032277;28;20164;-68
2021/12/06 04:42:33;;;;;;;1999.90;999.90;;;3.90;99.90;;;;;;5032412;28;20198;-68
2021/12/06 04:44:59;;;;;;;1999.90;999.90;;;3.90;99.90;;;;;;5032005;28;20522;-69
2021/12/06 04:47:24;;;;;;;1999.90;999.90;;;3.80;99.90;;;;;;5032276;28;20175;-68
2021/12/06 04:49:50;;;;;;;1999.90;999.90;;;3.90;99.90;;;;;;5032264;28;20665;-69
2021/12/06 04:52:18;;;;;;;1999.90;999.90;;;3.80;99.90;;;;;;5032028;28;20752;-68
2021/12/06 04:54:46;;;;;;;1999.90;999.90;;;3.90;99.90;;;;;;5031811;28;20165;-69
2021/12/06 04:57:33;;;;;;;1999.90;999.90;;;3.80;99.90;;;;;;5032145;28;20168;-69
2021/12/06 05:00:19;;;;;;;1999.90;999.90;;;3.80;99.90;;;;;;5031974;28;20253;-68
2021/12/06 05:02:46;;;;;;;1999.90;999.90;;;3.70;99.90;;;;;;5032150;28;20180;-68
2021/12/06 05:05:32;;;;;;;1999.90;999.90;;;3.60;99.90;;;;;;5031751;28;20172;-68
2021/12/06 05:08:03;;;;;;;1999.90;999.90;;;3.60;99.90;;;;;;5031971;28;20259;-69
2021/12/06 05:10:29;;;;;;;1999.90;999.90;;;3.50;99.90;;;;;;5031934;28;20246;-68
2021/12/06 05:12:56;;;;;;;1999.90;999.90;;;3.40;99.90;;;;;;5031897;28;20243;-68
2021/12/06 05:15:22;;;;;;;1999.90;999.90;;;3.40;99.90;;;;;;5031132;28;20226;-69
2021/12/06 05:17:47;;;;;;;1999.90;999.90;;;3.40;99.90;;;;;;5031958;28;20172;-68
2021/12/06 05:20:14;;;;;;;1999.90;999.90;;;3.30;99.90;;;;;;5031867;28;20164;-67
2021/12/06 05:22:41;;;;;;;1999.90;999.90;;;3.30;99.90;;;;;;5031853;28;20175;-69
2021/12/06 05:25:08;;;;;;;1999.90;999.90;;;3.30;99.90;;;;;;5031543;28;20180;-68
2021/12/06 05:27:34;;;;;;;1999.90;999.90;;;3.30;99.90;;;;;;5031781;28;20231;-68
2021/12/06 05:30:02;;;;;;;1999.90;999.90;;;3.30;99.90;;;;;;5031822;28;20180;-68
2021/12/06 05:32:34;;;;;;;1999.90;999.90;;;3.30;99.90;;;;;;5031687;28;20446;-69
2021/12/06 05:35:06;;;;;;;1999.90;999.90;;;3.30;99.90;;;;;;5031569;28;20179;-69
2021/12/06 05:37:34;;;;;;;1999.90;999.90;;;3.40;99.90;;;;;;5031707;28;20173;-69
2021/12/06 05:40:00;;;;;;;1999.90;999.90;;;3.40;99.90;;;;;;5031654;28;20176;-68
2021/12/06 05:42:26;;;;;;;1999.90;999.90;;;3.40;99.90;;;;;;5031666;28;20172;-68
2021/12/06 05:44:53;;;;;;;1999.90;999.90;;;3.40;99.90;;;;;;5031411;28;20538;-69
2021/12/06 05:47:19;;;;;;;1999.90;999.90;;;3.40;99.90;;;;;;5031599;28;20411;-69
2021/12/06 05:49:45;;;;;;;1999.90;999.90;;;3.40;99.90;;;;;;5031617;28;20561;-68
2021/12/06 05:52:10;;;;;;;1999.90;999.90;;;3.50;99.90;;;;;;5031340;28;20212;-69
2021/12/06 05:54:37;;;;;;;1999.90;999.90;;;3.60;99.90;;;;;;5031320;28;20169;-68
2021/12/06 05:57:05;;;;;;;1999.90;999.90;;;3.50;99.90;;;;;;5031560;28;20230;-68
2021/12/06 05:59:31;;;;;;;1999.90;999.90;;;3.40;99.90;;;;;;5031553;28;20188;-69
2021/12/06 06:01:57;;;;;;;1999.90;999.90;;;3.40;99.90;;;;;;5031416;28;20235;-69
2021/12/06 06:04:25;;;;;;;1999.90;999.90;;;3.30;99.90;;;;;;5031121;28;20395;-68
2021/12/06 06:06:51;;;;;;;1999.90;999.90;;;3.20;99.90;;;;;;5031464;28;20160;-68
2021/12/06 06:09:17;;;;;;;1999.90;999.90;;;3.10;99.90;;;;;;5031456;28;20574;-68
2021/12/06 06:11:43;;;;;;;1999.90;999.90;;;3.00;99.90;;;;;;5031389;28;20195;-68
2021/12/06 06:14:08;;;;;;;1999.90;999.90;;;2.90;99.90;;;;;;5031051;28;20707;-67
2021/12/06 06:16:45;;;;;;;1999.90;999.90;;;2.90;99.90;;;;;;5031435;28;20231;-69
2021/12/06 06:19:11;;;;;;;1999.90;999.90;;;2.90;99.90;;;;;;5031316;28;20567;-68
2021/12/06 06:21:37;;;;;;;1999.90;999.90;;;2.80;99.90;;;;;;5031263;28;20208;-68
2021/12/06 06:24:03;;;;;;;1999.90;999.90;;;2.80;99.90;;;;;;5031001;28;20188;-68
2021/12/06 06:26:28;;;;;;;1999.90;999.90;;;2.80;99.90;;;;;;5031340;28;20822;-68
2021/12/06 06:28:54;;;;;;;1999.90;999.90;;;2.80;99.90;;;;;;5033989;28;20399;-69
2021/12/06 06:31:19;;;;;;;1999.90;999.90;;;2.70;99.90;;;;;;5034718;28;20652;-68
2021/12/06 06:33:45;;;;;;;1999.90;999.90;;;2.60;99.90;;;;;;5034731;28;20235;-68
2021/12/06 06:36:12;;;;;;;1999.90;999.90;;;2.70;99.90;;;;;;5034577;28;20167;-68
2021/12/06 06:38:38;;;;;;;1999.90;999.90;;;2.70;99.90;;;;;;5034803;28;20564;-68
2021/12/06 06:41:03;;;;;;;1999.90;999.90;;;2.70;99.90;;;;;;5034544;28;20568;-68
2021/12/06 06:43:29;;;;;;;1999.90;999.90;;;2.80;99.90;;;;;;5034602;28;20171;-68
2021/12/06 06:45:55;;;;;;;1999.90;999.90;;;2.80;99.90;;;;;;5034264;28;20176;-68
2021/12/06 06:48:21;;;;;;;1999.90;999.90;;;2.80;99.90;;;;;;5034534;28;20464;-68
2021/12/06 06:50:47;;;;;;;1999.90;999.90;;;2.90;99.90;;;;;;5034257;28;20451;-69
2021/12/06 06:53:12;;;;;;;1999.90;999.90;;;3.00;99.90;;;;;;5034390;28;20461;-69
2021/12/06 06:55:38;;;;;;;1999.90;999.90;;;3.00;99.90;;;;;;5034006;28;20180;-69
2021/12/06 06:58:04;;;;;;;1999.90;999.90;;;3.10;99.90;;;;;;5034320;28;20552;-68
2021/12/06 07:00:34;;;;;;;1999.90;999.90;;;3.00;99.90;;;;;;5034270;28;20188;-68
2021/12/06 07:03:01;;;;;;;1999.90;999.90;;;3.00;99.90;;;;;;5034267;28;20175;-68
2021/12/06 07:05:28;;;;;;;1999.90;999.90;;;3.00;99.90;;;;;;5033812;28;20207;-69
2021/12/06 07:07:54;;;;;;;1999.90;999.90;;;3.00;99.90;;;;;;5034232;28;20168;-68
2021/12/06 07:10:20;;;;;;;1999.90;999.90;;;2.90;99.90;;;;;;5034013;28;20199;-68
2021/12/06 07:12:49;;;;;;;1999.90;999.90;;;2.90;99.90;;;;;;5034148;28;20304;-69
2021/12/06 07:15:18;;;;;;;1999.90;999.90;;;2.90;99.90;;;;;;5033736;28;20247;-69
2021/12/06 07:17:45;;;;;;;1999.90;999.90;;;3.00;99.90;;;;;;5033982;28;20160;-69
2021/12/06 07:20:13;;;;;;;1999.90;999.90;;;3.00;99.90;;;;;;5033769;28;20175;-69
2021/12/06 07:22:38;;;;;;;1999.90;999.90;;;3.00;99.90;;;;;;5033793;28;20168;-69
2021/12/06 07:25:06;;;;;;;1999.90;999.90;;;2.90;99.90;;;;;;5037832;28;20184;-69
2021/12/06 07:27:33;;;;;;;1999.90;999.90;;;2.90;99.90;;;;;;5039833;28;20410;-69
2021/12/06 07:29:59;;;;;;;1999.90;999.90;;;2.90;99.90;;;;;;5041123;28;20204;-68
2021/12/06 07:32:25;;;;;;;1999.90;999.90;;;3.00;99.90;;;;;;5040466;28;20204;-68
2021/12/06 07:34:51;;;;;;;1999.90;999.90;;;3.00;99.90;;;;;;5039887;28;20211;-68
2021/12/06 07:37:18;;;;;;;1999.90;999.90;;;3.00;99.90;;;;;;5040426;28;20565;-69
2021/12/06 07:39:44;;;;;;;1999.90;999.90;;;3.10;99.90;;;;;;5041108;28;20169;-69
2021/12/06 07:42:12;;;;;;;1999.90;999.90;;;3.00;99.90;;;;;;5041146;28;20720;-70
2021/12/06 07:44:39;;;;;;;1999.90;999.90;;;3.10;99.90;;;;;;5040672;28;20196;-69
2021/12/06 07:47:06;;;;;;;1999.90;999.90;;;3.10;99.90;;;;;;5039464;28;20188;-69
2021/12/06 07:49:32;;;;;;;1999.90;999.90;;;3.20;99.90;;;;;;5039847;28;20548;-69
2021/12/06 07:51:57;;;;;;;1999.90;999.90;;;3.40;99.90;;;;;;5040198;28;20212;-69
2021/12/06 07:54:23;;;;;;;1999.90;999.90;;;3.50;99.90;;;;;;5040307;28;20165;-68
2021/12/06 07:56:48;;;;;;;1999.90;999.90;;;3.50;99.90;;;;;;5041118;28;20177;-69
2021/12/06 07:59:14;;;;;;;1999.90;999.90;;;3.50;99.90;;;;;;5041063;28;20169;-69
2021/12/06 08:01:40;;;;;;;1999.90;999.90;;;3.50;99.90;;;;;;5042855;28;20277;-68
2021/12/06 08:04:06;;;;;;;1999.90;999.90;;;3.50;99.90;;;;;;5043305;28;20626;-69
2021/12/06 08:06:32;;;;;;;1999.90;999.90;;;3.60;99.90;;;;;;5043380;28;20407;-69
2021/12/06 08:08:58;;;;;;;1999.90;999.90;;;3.50;99.90;;;;;;5042130;28;20164;-69
2021/12/06 08:11:25;;;;;;;1999.90;999.90;;;3.60;99.90;;;;;;5042710;28;20650;-68
2021/12/06 08:13:56;;;;;;;1999.90;999.90;;;3.50;99.90;;;;;;5041598;28;20446;-70
2021/12/06 08:16:25;;;;;;;1999.90;999.90;;;3.50;99.90;;;;;;5042051;28;20170;-68
2021/12/06 08:18:51;;;;;;;1999.90;999.90;;;3.60;99.90;;;;;;5041798;28;20156;-70
2021/12/06 08:21:20;;;;;;;1999.90;999.90;;;3.60;99.90;;;;;;5024519;28;20246;-68
2021/12/06 08:23:46;;;;;;;1999.90;999.90;;;3.60;99.90;;;;;;5042913;28;20165;-69
2021/12/06 08:26:13;;;;;;;1999.90;999.90;;;3.60;99.90;;;;;;5042791;28;20177;-68
2021/12/06 08:28:40;;;;;;;1999.90;999.90;;;3.70;99.90;;;;;;5042340;28;20164;-69
2021/12/06 08:31:06;;;;;;;1999.90;999.90;;;3.70;99.90;;;;;;5024790;28;20283;-69
2021/12/06 08:33:34;;;;;;;1999.90;999.90;;;3.70;99.90;;;;;;5042614;28;20211;-69
2021/12/06 08:36:00;;;;;;;1999.90;999.90;;;3.70;99.90;;;;;;5041961;28;20259;-68
2021/12/06 08:38:29;;;;;;;1999.90;999.90;;;3.70;99.90;;;;;;5042882;28;20171;-69
2021/12/06 08:40:56;;;;;;;1999.90;999.90;;;3.70;99.90;;;;;;5042375;28;20188;-69
2021/12/06 08:43:22;;;;;;;1999.90;999.90;;;3.70;99.90;;;;;;5042218;28;20192;-68
2021/12/06 08:45:52;;;;;;;1999.90;999.90;;;3.80;99.90;;;;;;5042002;28;20222;-69
2021/12/06 08:48:19;;;;;;;1999.90;999.90;;;3.80;99.90;;;;;;5042122;28;20429;-68
2021/12/06 08:50:45;;;;;;;1999.90;999.90;;;3.80;99.90;;;;;;5042340;28;20294;-69
2021/12/06 08:53:12;;;;;;;1999.90;999.90;;;3.80;99.90;;;;;;5026868;28;20617;-69
2021/12/06 08:55:38;;;;;;;1999.90;999.90;;;3.70;99.90;;;;;;5043845;28;20889;-69
2021/12/06 08:58:04;;;;;;;1999.90;999.90;;;3.70;99.90;;;;;;5043155;28;20186;-69
2021/12/06 09:00:32;;;;;;;1999.90;999.90;;;3.70;99.90;;;;;;5043195;28;20791;-69
2021/12/06 09:02:57;;;;;;;1999.90;999.90;;;3.60;99.90;;;;;;5042349;28;20251;-69
2021/12/06 09:05:28;;;;;;;1999.90;999.90;;;3.70;99.90;;;;;;5042203;28;20188;-68
2021/12/06 09:07:55;;;;;;;1999.90;999.90;;;3.70;99.90;;;;;;5040677;28;20399;-69
2021/12/06 09:10:21;;;;;;;1999.90;999.90;;;3.80;99.90;;;;;;5040104;28;20172;-69
2021/12/06 09:12:48;;;;;;;1999.90;999.90;;;3.90;99.90;;;;;;5040644;28;20286;-69
2021/12/06 09:15:17;;;;;;;1999.90;999.90;;;3.90;99.90;;;;;;5040301;28;20171;-69
2021/12/06 09:17:44;;;;;;;1999.90;999.90;;;3.80;99.90;;;;;;5039370;28;20553;-69
2021/12/06 09:20:13;;;;;;;1999.90;999.90;;;3.90;99.90;;;;;;5039259;28;20172;-68
2021/12/06 09:22:39;;;;;;;1999.90;999.90;;;3.90;99.90;;;;;;5038597;28;20657;-69
2021/12/06 09:25:08;;;;;;;1999.90;999.90;;;4.10;99.90;;;;;;5039635;28;20168;-68
2021/12/06 09:27:34;;;;;;;1999.90;999.90;;;4.00;99.90;;;;;;5039103;28;20170;-69
2021/12/06 09:29:59;;;;;;;1999.90;999.90;;;4.10;99.90;;;;;;5037260;28;20256;-69
2021/12/06 09:32:25;;;;;;;1999.90;999.90;;;4.30;99.90;;;;;;5036449;28;20192;-68
2021/12/06 09:34:56;;;;;;;1999.90;999.90;;;4.50;99.90;;;;;;5036783;28;20175;-69
2021/12/06 09:37:22;;;;;;;1999.90;999.90;;;4.60;99.90;;;;;;5035661;28;20706;-70
2021/12/06 09:39:48;;;;;;;1999.90;999.90;;;4.70;99.90;;;;;;5035093;28;20176;-70
2021/12/06 09:42:17;;;;;;;1999.90;999.90;;;4.80;99.90;;;;;;5034490;28;20334;-69
2021/12/06 09:44:43;;;;;;;1999.90;999.90;;;5.00;99.90;;;;;;5040246;28;20414;-70
2021/12/06 09:47:08;;;;;;;1999.90;999.90;;;5.20;99.90;;;;;;5026639;28;20511;-70
2021/12/06 09:49:34;;;;;;;1999.90;999.90;;;5.40;99.90;;;;;;5033699;28;20282;-68
2021/12/06 09:52:03;;;;;;;1999.90;999.90;;;5.80;99.90;;;;;;5031079;28;20207;-68
2021/12/06 09:54:31;;;;;;;1999.90;999.90;;;6.00;99.90;;;;;;5032076;28;20169;-69
2021/12/06 09:56:58;;;;;;;1999.90;999.90;;;6.20;99.90;;;;;;5031610;28;20490;-70
2021/12/06 09:59:26;;;;;;;1999.90;999.90;;;6.30;99.90;;;;;;5033664;28;20410;-69
2021/12/06 10:02:05;;;;;;;1999.90;999.90;;;6.30;99.90;;;;;;5034001;28;20482;-71
2021/12/06 10:04:34;;;;;;;1999.90;999.90;;;6.40;99.90;;;;;;5035180;28;20422;-68
2021/12/06 10:07:01;;;;;;;1999.90;999.90;;;6.50;99.90;;;;;;5035527;28;20415;-68
2021/12/06 10:09:29;;;;;;;1999.90;999.90;;;6.70;99.90;;;;;;5035300;28;20403;-68
2021/12/06 10:11:57;;;;;;;1999.90;999.90;;;6.90;99.90;;;;;;5035586;28;20859;-68
2021/12/06 10:14:23;;;;;;;1999.90;999.90;;;6.90;99.90;;;;;;5034904;28;20410;-68
2021/12/06 10:16:49;;;;;;;1999.90;999.90;;;6.80;99.90;;;;;;5039334;28;20501;-68
2021/12/06 10:19:16;;;;;;;1999.90;999.90;;;6.70;99.90;;;;;;5035041;28;20399;-69
2021/12/06 10:21:43;;;;;;;1999.90;999.90;;;6.60;99.90;;;;;;5035199;28;20426;-68
2021/12/06 10:24:15;;;;;;;1999.90;999.90;;;6.40;99.90;;;;;;5034727;28;20396;-68
2021/12/06 10:26:41;;;;;;;1999.90;999.90;;;6.30;99.90;;;;;;5034887;28;20391;-69
2021/12/06 10:29:20;;;;;;;1999.90;999.90;;;6.10;99.90;;;;;;5034886;28;20406;-68
2021/12/06 10:31:47;;;;;;;1999.90;999.90;;;5.90;99.90;;;;;;5031663;28;20184;-68
2021/12/06 10:34:19;;;;;;;1999.90;999.90;;;5.60;99.90;;;;;;5033429;28;20418;-68
2021/12/06 10:36:45;;;;;;;1999.90;999.90;;;5.60;99.90;;;;;;5033486;28;20395;-69
2021/12/06 10:39:11;;;;;;;1999.90;999.90;;;5.50;99.90;;;;;;5033749;28;20409;-68
2021/12/06 10:41:38;;;;;;;1999.90;999.90;;;5.40;99.90;;;;;;5034076;28;21000;-68
2021/12/06 10:44:09;;;;;;;1999.90;999.90;;;5.40;99.90;;;;;;5034388;28;20157;-69
2021/12/06 10:46:38;;;;;;;1999.90;999.90;;;5.50;99.90;;;;;;5033672;28;20387;-68
2021/12/06 10:49:07;;;;;;;1999.90;999.90;;;5.60;99.90;;;;;;5034536;28;20958;-69
2021/12/06 10:51:33;;;;;;;1999.90;999.90;;;5.60;99.90;;;;;;5036915;28;20447;-70
2021/12/06 10:54:06;;;;;;;1999.90;999.90;;;5.60;99.90;;;;;;5033808;28;20474;-70
2021/12/06 10:56:47;;;;;;;1999.90;999.90;;;5.50;99.90;;;;;;5033680;28;20388;-68
2021/12/06 10:59:18;;;;;;;1999.90;999.90;;;5.40;99.90;;;;;;5033672;28;20983;-67
2021/12/06 11:01:46;;;;;;;1999.90;999.90;;;5.30;99.90;;;;;;5033087;28;20419;-68
2021/12/06 11:04:16;;;;;;;1999.90;999.90;;;5.20;99.90;;;;;;5033356;28;20230;-69
2021/12/06 11:06:51;;;;;;;1999.90;999.90;;;5.30;99.90;;;;;;5033228;28;20988;-67
2021/12/06 11:09:26;;;;;;;1999.90;999.90;;;5.50;99.90;;;;;;5032861;28;20406;-67
2021/12/06 11:11:56;;;;;;;1999.90;999.90;;;5.60;99.90;;;;;;5033388;28;20426;-67
2021/12/06 11:14:29;;;;;;;1999.90;999.90;;;5.50;99.90;;;;;;5032191;28;20451;-70
2021/12/06 11:16:56;;;;;;;1999.90;999.90;;;5.50;99.90;;;;;;5032697;28;20397;-69
2021/12/06 11:19:24;;;;;;;1999.90;999.90;;;5.60;99.90;;;;;;5033341;28;20416;-68
2021/12/06 11:22:03;;;;;;;1999.90;999.90;;;5.70;99.90;;;;;;5033096;28;20498;-67
2021/12/06 11:24:31;;;;;;;1999.90;999.90;;;6.00;99.90;;;;;;5032638;28;20395;-68
2021/12/06 11:27:07;;;;;;;1999.90;999.90;;;6.00;99.90;;;;;;5033118;28;20407;-68
2021/12/06 11:29:46;;;;;;;1999.90;999.90;;;6.10;99.90;;;;;;5033462;28;20379;-68
2021/12/06 11:32:27;;;;;;;1999.90;999.90;;;6.20;99.90;;;;;;5032667;28;20415;-68
2021/12/06 11:34:57;;;;;;;1999.90;999.90;;;6.10;99.90;;;;;;5032923;28;20923;-69
2021/12/06 11:37:34;;;;;;;1999.90;999.90;;;6.00;99.90;;;;;;5032794;28;20405;-70
2021/12/06 11:40:22;;;;;;;1999.90;999.90;;;6.00;99.90;;;;;;5034606;28;20791;-68
2021/12/06 11:43:00;;;;;;;1999.90;999.90;;;5.80;99.90;;;;;;5033081;28;20552;-68
2021/12/06 11:45:47;;;;;;;1999.90;999.90;;;5.60;99.90;;;;;;5032583;28;20434;-69
2021/12/06 11:48:24;;;;;;;1999.90;999.90;;;5.70;99.90;;;;;;5032935;28;20417;-68
2021/12/06 11:50:50;;;;;;;1999.90;999.90;;;5.70;99.90;;;;;;5033001;28;20446;-69
2021/12/06 11:53:19;;;;;;;1999.90;999.90;;;5.80;99.90;;;;;;5032628;28;20820;-69
2021/12/06 11:55:52;;;;;;;1999.90;999.90;;;5.80;99.90;;;;;;5032552;28;20183;-68
2021/12/06 11:58:34;;;;;;;1999.90;999.90;;;5.90;99.90;;;;;;5032570;28;20917;-68
2021/12/06 12:01:16;;;;;;;1999.90;999.90;;;5.90;99.90;;;;;;5031258;28;20555;-68
2021/12/06 12:03:45;;;;;;;1999.90;999.90;;;6.20;99.90;;;;;;5032690;28;20445;-69
2021/12/06 12:06:33;;;;;;;1999.90;999.90;;;7.00;99.90;;;;;;5031999;28;20411;-69
2021/12/06 12:09:02;;;;;;;1999.90;999.90;;;8.30;99.90;;;;;;5031856;28;20415;-68
2021/12/06 12:11:28;;;;;;;1999.90;999.90;;;9.60;99.90;;;;;;5032347;28;20795;-70
2021/12/06 12:13:56;;;;;;;1999.90;999.90;;;10.90;99.90;;;;;;5032018;28;20557;-68
2021/12/06 12:16:22;;;;;;;1999.90;999.90;;;11.90;99.90;;;;;;5031325;28;20168;-68
2021/12/06 12:18:48;;;;;;;1999.90;999.90;;;12.50;99.90;;;;;;5032182;28;20417;-69
2021/12/06 12:21:14;;;;;;;1999.90;999.90;;;12.90;99.90;;;;;;5032059;28;20189;-69
2021/12/06 12:23:42;;;;;;;1999.90;999.90;;;13.30;99.90;;;;;;5031510;28;20407;-69
2021/12/06 12:26:13;;;;;;;1999.90;999.90;;;13.90;99.90;;;;;;5031522;28;20399;-69
2021/12/06 12:28:59;;;;;;;1999.90;999.90;;;14.50;99.90;;;;;;5032002;28;20381;-70